Time;durP1;ratioP1;P1;durP2;ratioP2;P2;SDS_P1;SDS_P2;PMS_P1;PMS_P2;Temp;Humidity;BMP_temperature;BMP_pressure;BME280_temperature;BME280_humidity;BME280_pressure;Samples;Min_cycle;Max_cycle;Signal;HPM_P1;HPM_P2
2021/03/06 00:00:17;;;;;;;6.07;3.17;;;2.20;99.90;;;;;;5025109;28;20472;-50
2021/03/06 00:02:45;;;;;;;7.33;2.40;;;2.00;99.90;;;;;;5045161;28;21008;-51
2021/03/06 00:05:14;;;;;;;8.17;2.70;;;2.10;99.90;;;;;;5044327;28;21020;-53
2021/03/06 00:07:41;;;;;;;5.63;2.47;;;2.30;99.90;;;;;;5030499;28;21049;-51
2021/03/06 00:10:12;;;;;;;8.73;2.70;;;2.30;99.90;;;;;;5034921;28;20482;-49
2021/03/06 00:12:42;;;;;;;4.93;2.20;;;2.10;99.90;;;;;;5029070;28;20943;-49
2021/03/06 00:15:12;;;;;;;6.20;2.27;;;2.00;99.90;;;;;;5029573;28;20914;-52
2021/03/06 00:17:39;;;;;;;6.60;2.30;;;1.90;99.90;;;;;;5053217;28;20528;-50
2021/03/06 00:20:10;;;;;;;5.13;2.33;;;1.90;99.90;;;;;;5045234;28;20538;-49
2021/03/06 00:22:37;;;;;;;4.73;2.00;;;1.70;99.90;;;;;;5045449;28;20943;-49
2021/03/06 00:25:08;;;;;;;6.90;2.10;;;1.60;99.90;;;;;;5045281;28;20580;-49
2021/03/06 00:27:35;;;;;;;6.47;2.07;;;1.60;99.90;;;;;;5048049;28;21050;-48
2021/03/06 00:30:07;;;;;;;7.90;2.37;;;1.70;99.90;;;;;;5045802;28;21007;-49
2021/03/06 00:32:35;;;;;;;6.60;2.03;;;1.80;99.90;;;;;;5046518;28;20547;-49
2021/03/06 00:35:04;;;;;;;8.87;2.20;;;1.80;99.90;;;;;;5045768;28;20960;-49
2021/03/06 00:37:32;;;;;;;5.20;2.30;;;1.80;99.90;;;;;;5047040;28;20884;-49
2021/03/06 00:39:59;;;;;;;5.33;2.00;;;1.70;99.90;;;;;;5045868;28;20852;-50
2021/03/06 00:42:27;;;;;;;4.87;2.00;;;1.80;99.90;;;;;;5046762;28;20480;-49
2021/03/06 00:44:54;;;;;;;4.90;2.00;;;1.80;99.90;;;;;;5047714;28;21060;-49
2021/03/06 00:47:21;;;;;;;4.90;1.87;;;1.70;99.90;;;;;;5063208;28;20482;-49
2021/03/06 00:49:49;;;;;;;6.53;2.20;;;1.70;99.90;;;;;;5066798;28;20482;-49
2021/03/06 00:52:17;;;;;;;4.80;1.73;;;1.60;99.90;;;;;;5051843;28;20500;-50
2021/03/06 00:54:45;;;;;;;6.40;2.23;;;1.60;99.90;;;;;;5055386;28;20477;-49
2021/03/06 00:57:13;;;;;;;6.17;2.03;;;1.50;99.90;;;;;;5035665;28;20541;-49
2021/03/06 00:59:41;;;;;;;5.50;2.10;;;1.50;99.90;;;;;;5043048;28;20558;-50
2021/03/06 01:02:08;;;;;;;6.03;1.90;;;1.50;99.90;;;;;;5045528;28;20487;-50
2021/03/06 01:04:37;;;;;;;5.60;1.97;;;1.60;99.90;;;;;;5056534;28;20510;-49
2021/03/06 01:07:05;;;;;;;5.00;2.10;;;1.50;99.90;;;;;;5032240;28;20568;-49
2021/03/06 01:09:32;;;;;;;5.03;2.10;;;1.70;99.90;;;;;;5038483;28;21101;-50
2021/03/06 01:12:00;;;;;;;9.40;2.37;;;1.60;99.90;;;;;;5036592;28;20553;-49
2021/03/06 01:14:29;;;;;;;3.70;1.77;;;1.60;99.90;;;;;;5045406;28;20500;-50
2021/03/06 01:16:57;;;;;;;4.57;1.93;;;1.60;99.90;;;;;;5050294;28;20495;-50
2021/03/06 01:19:25;;;;;;;4.40;1.87;;;1.70;99.90;;;;;;5048971;28;20472;-49
2021/03/06 01:21:53;;;;;;;7.17;2.20;;;1.70;99.90;;;;;;5059208;28;21009;-49
2021/03/06 01:24:34;;;;;;;3.80;1.70;;;1.70;99.90;;;;;;5062312;28;20486;-50
2021/03/06 01:27:03;;;;;;;7.73;2.07;;;1.70;99.90;;;;;;5049676;28;21004;-49
2021/03/06 01:29:30;;;;;;;6.57;1.93;;;1.50;99.90;;;;;;5049662;28;21065;-49
2021/03/06 01:31:58;;;;;;;3.97;1.87;;;1.40;99.90;;;;;;5049498;28;21252;-49
2021/03/06 01:34:25;;;;;;;8.83;1.63;;;1.40;99.90;;;;;;5050034;28;20476;-49
2021/03/06 01:36:53;;;;;;;9.23;2.00;;;1.50;99.90;;;;;;5049124;28;20510;-49
2021/03/06 01:39:21;;;;;;;8.40;1.87;;;1.50;99.90;;;;;;5056712;28;20469;-49
2021/03/06 01:41:49;;;;;;;6.90;1.70;;;1.60;99.90;;;;;;5063331;28;20558;-50
2021/03/06 01:44:17;;;;;;;5.50;1.80;;;1.60;99.90;;;;;;5070284;28;20900;-49
2021/03/06 01:46:45;;;;;;;5.17;1.77;;;1.70;99.90;;;;;;5062554;28;20572;-49
2021/03/06 01:49:13;;;;;;;8.93;2.20;;;1.80;99.90;;;;;;5040256;28;20471;-49
2021/03/06 01:51:42;;;;;;;6.03;1.70;;;1.80;99.90;;;;;;5041937;28;20476;-50
2021/03/06 01:54:11;;;;;;;6.80;1.53;;;2.00;99.90;;;;;;5037485;28;20492;-50
2021/03/06 01:56:39;;;;;;;6.33;1.97;;;1.90;99.90;;;;;;5042013;28;20889;-49
2021/03/06 01:59:07;;;;;;;5.37;1.77;;;1.90;99.90;;;;;;5055891;28;20565;-49
2021/03/06 02:01:35;;;;;;;6.53;2.00;;;2.00;99.90;;;;;;5061545;28;20835;-49
2021/03/06 02:04:03;;;;;;;5.23;2.00;;;2.00;99.90;;;;;;5069509;28;20490;-49
2021/03/06 02:06:31;;;;;;;7.93;1.97;;;2.00;99.90;;;;;;5061257;28;20583;-49
2021/03/06 02:08:58;;;;;;;4.13;1.80;;;1.80;99.90;;;;;;5037505;28;20495;-49
2021/03/06 02:11:40;;;;;;;7.13;2.20;;;1.90;99.90;;;;;;5040004;28;20557;-49
2021/03/06 02:14:24;;;;;;;9.43;1.90;;;1.80;99.90;;;;;;5048261;28;20562;-49
2021/03/06 02:16:57;;;;;;;7.33;1.77;;;1.70;99.90;;;;;;5049399;28;20483;-50
2021/03/06 02:19:55;;;;;;;9.43;2.00;;;1.90;99.90;;;;;;5049698;28;21058;-49
2021/03/06 02:22:54;;;;;;;8.50;1.80;;;2.00;99.90;;;;;;5048431;28;20484;-50
2021/03/06 02:25:51;;;;;;;5.43;1.83;;;1.90;99.90;;;;;;5033890;28;20494;-50
2021/03/06 02:28:31;;;;;;;4.70;1.77;;;1.90;99.90;;;;;;5047348;28;20486;-50
2021/03/06 02:31:00;;;;;;;6.63;1.47;;;1.90;99.90;;;;;;5046888;28;20493;-49
2021/03/06 02:33:32;;;;;;;6.60;2.30;;;2.10;99.90;;;;;;5045796;28;20495;-49
2021/03/06 02:36:06;;;;;;;6.13;1.53;;;2.30;99.90;;;;;;5030896;28;20999;-49
2021/03/06 02:38:36;;;;;;;9.07;1.90;;;2.00;99.90;;;;;;5030201;28;20488;-50
2021/03/06 02:41:04;;;;;;;6.47;1.70;;;1.90;99.90;;;;;;5055809;28;20491;-49
2021/03/06 02:43:34;;;;;;;7.97;2.00;;;1.90;99.90;;;;;;5027360;28;20479;-50
2021/03/06 02:46:05;;;;;;;4.40;1.97;;;1.80;99.90;;;;;;5030768;28;20863;-50
2021/03/06 02:48:35;;;;;;;6.80;1.67;;;1.80;99.90;;;;;;5042428;28;20481;-49
2021/03/06 02:51:03;;;;;;;7.43;1.67;;;1.90;99.90;;;;;;5043467;28;20605;-49
2021/03/06 02:53:30;;;;;;;7.87;1.60;;;1.70;99.90;;;;;;5038546;28;20492;-49
2021/03/06 02:55:59;;;;;;;7.27;1.60;;;1.60;99.90;;;;;;5046939;28;20505;-51
2021/03/06 02:58:46;;;;;;;5.77;1.53;;;1.60;99.90;;;;;;5044609;28;20843;-49
2021/03/06 03:01:24;;;;;;;8.93;2.37;;;1.80;99.90;;;;;;5050782;28;20468;-50
2021/03/06 03:03:58;;;;;;;5.60;1.47;;;2.00;99.90;;;;;;5032700;28;22419;-50
2021/03/06 03:06:34;;;;;;;9.57;2.07;;;1.90;99.90;;;;;;5033607;28;20473;-50
2021/03/06 03:09:11;;;;;;;4.10;1.60;;;1.70;99.90;;;;;;5027198;28;20515;-49
2021/03/06 03:11:49;;;;;;;6.70;1.60;;;1.70;99.90;;;;;;5027472;28;20542;-49
2021/03/06 03:14:23;;;;;;;5.70;1.50;;;1.70;99.90;;;;;;5010435;28;20470;-50
2021/03/06 03:16:56;;;;;;;5.77;1.60;;;1.80;99.90;;;;;;5011507;28;20479;-49
2021/03/06 03:19:30;;;;;;;6.63;2.27;;;1.70;99.90;;;;;;5010702;28;20988;-50
2021/03/06 03:22:00;;;;;;;7.20;2.30;;;1.90;99.90;;;;;;5014103;28;20571;-49
2021/03/06 03:24:34;;;;;;;5.00;2.00;;;1.70;99.90;;;;;;5050387;28;20842;-49
2021/03/06 03:27:05;;;;;;;5.47;1.90;;;1.80;99.90;;;;;;5027202;28;20498;-49
2021/03/06 03:29:34;;;;;;;6.03;1.80;;;1.80;99.90;;;;;;5022205;28;20566;-49
2021/03/06 03:32:04;;;;;;;7.17;1.93;;;1.60;99.90;;;;;;5007447;28;20520;-49
2021/03/06 03:34:34;;;;;;;5.30;1.70;;;1.70;99.90;;;;;;5007588;28;20474;-49
2021/03/06 03:37:02;;;;;;;8.33;2.10;;;1.60;99.90;;;;;;5007905;28;20528;-50
2021/03/06 03:39:30;;;;;;;9.70;2.47;;;1.60;99.90;;;;;;5047671;28;20556;-50
2021/03/06 03:42:00;;;;;;;4.20;1.70;;;1.70;99.90;;;;;;5044849;28;21069;-49
2021/03/06 03:44:27;;;;;;;7.90;1.80;;;1.70;99.90;;;;;;5040929;28;20486;-49
2021/03/06 03:46:55;;;;;;;6.57;1.97;;;1.70;99.90;;;;;;5035278;28;20537;-49
2021/03/06 03:49:25;;;;;;;7.37;1.97;;;1.70;99.90;;;;;;5043248;28;20474;-49
2021/03/06 03:51:55;;;;;;;5.87;2.30;;;1.80;99.90;;;;;;5032247;28;20841;-49
2021/03/06 03:54:22;;;;;;;13.57;3.10;;;1.80;99.90;;;;;;5027251;28;20569;-50
2021/03/06 03:56:50;;;;;;;3.60;1.83;;;1.70;99.90;;;;;;5027671;28;20504;-49
2021/03/06 03:59:17;;;;;;;7.00;2.33;;;1.80;99.90;;;;;;5028793;28;20471;-49
2021/03/06 04:01:46;;;;;;;6.27;2.10;;;1.80;99.90;;;;;;5037369;28;20482;-49
2021/03/06 04:04:29;;;;;;;3.50;1.83;;;1.80;99.90;;;;;;5043138;28;20490;-49
2021/03/06 04:07:00;;;;;;;8.33;2.13;;;1.80;99.90;;;;;;5033644;28;20541;-49
2021/03/06 04:09:28;;;;;;;8.70;2.23;;;1.80;99.90;;;;;;5054451;28;20506;-50
2021/03/06 04:11:55;;;;;;;5.23;2.27;;;1.80;99.90;;;;;;5046638;28;20551;-49
2021/03/06 04:14:23;;;;;;;7.40;2.23;;;1.80;99.90;;;;;;5046308;28;20542;-49
2021/03/06 04:16:50;;;;;;;7.67;2.43;;;1.80;99.90;;;;;;5046064;28;20480;-49
2021/03/06 04:19:18;;;;;;;8.57;1.97;;;1.80;99.90;;;;;;5042945;28;20483;-49
2021/03/06 04:21:46;;;;;;;8.30;2.67;;;1.80;99.90;;;;;;5046846;28;20483;-49
2021/03/06 04:24:13;;;;;;;10.23;2.67;;;1.80;99.90;;;;;;5046271;28;20503;-50
2021/03/06 04:26:50;;;;;;;5.40;2.13;;;1.80;99.90;;;;;;5010771;28;20908;-50
2021/03/06 04:29:19;;;;;;;5.60;2.10;;;1.80;99.90;;;;;;5012970;28;20498;-49
2021/03/06 04:31:46;;;;;;;7.85;3.03;;;1.90;99.90;;;;;;5025357;28;20433;-49
2021/03/06 04:34:15;;;;;;;8.13;2.83;;;1.80;99.90;;;;;;5027371;28;20315;-50
2021/03/06 04:36:43;;;;;;;7.13;2.40;;;1.90;99.90;;;;;;5044704;28;20494;-49
2021/03/06 04:39:12;;;;;;;6.17;2.40;;;1.90;99.90;;;;;;5043769;28;20569;-49
2021/03/06 04:41:39;;;;;;;5.07;2.13;;;2.00;99.90;;;;;;5044350;28;20551;-49
2021/03/06 04:44:08;;;;;;;7.63;2.00;;;1.90;99.90;;;;;;5041176;28;20556;-49
2021/03/06 04:46:36;;;;;;;6.17;2.37;;;2.00;99.90;;;;;;5040728;28;20510;-50
2021/03/06 04:49:04;;;;;;;6.63;2.20;;;1.90;99.90;;;;;;5034567;28;20546;-49
2021/03/06 04:51:31;;;;;;;7.00;2.50;;;2.00;99.90;;;;;;5045921;28;20573;-52
2021/03/06 04:53:58;;;;;;;9.67;3.13;;;2.00;99.90;;;;;;5049251;28;20491;-49
2021/03/06 04:56:27;;;;;;;6.83;2.70;;;2.00;99.90;;;;;;5056677;28;20885;-49
2021/03/06 04:58:54;;;;;;;5.00;2.30;;;2.10;99.90;;;;;;5046973;28;20476;-52
2021/03/06 05:01:24;;;;;;;5.70;2.27;;;2.30;99.90;;;;;;5039552;28;20483;-50
2021/03/06 05:03:53;;;;;;;5.63;2.70;;;2.20;99.90;;;;;;5045668;28;20481;-49
2021/03/06 05:06:21;;;;;;;10.63;3.23;;;2.10;99.90;;;;;;5045856;28;20478;-49
2021/03/06 05:08:48;;;;;;;10.23;3.03;;;2.10;99.90;;;;;;5025576;28;20583;-49
2021/03/06 05:11:15;;;;;;;9.47;2.23;;;2.10;99.90;;;;;;5026177;28;20499;-50
2021/03/06 05:13:43;;;;;;;10.30;2.43;;;2.00;99.90;;;;;;5027687;28;20471;-50
2021/03/06 05:16:10;;;;;;;6.53;2.30;;;2.00;99.90;;;;;;5021155;28;20540;-49
2021/03/06 05:18:38;;;;;;;9.00;2.73;;;2.00;99.90;;;;;;5035903;28;20591;-49
2021/03/06 05:21:05;;;;;;;5.87;2.73;;;2.00;99.90;;;;;;5039115;28;20556;-50
2021/03/06 05:23:33;;;;;;;4.67;2.50;;;1.90;99.90;;;;;;5027724;28;20578;-49
2021/03/06 05:26:00;;;;;;;5.50;2.30;;;2.00;99.90;;;;;;5029847;28;20553;-50
2021/03/06 05:28:27;;;;;;;9.63;2.47;;;2.00;99.90;;;;;;5041623;28;20485;-51
2021/03/06 05:31:13;;;;;;;9.19;2.54;;;2.00;99.90;;;;;;2622676;28;10004003;-49
2021/03/06 05:33:41;;;;;;;9.17;2.37;;;2.10;99.90;;;;;;3997311;28;10001084;-49
2021/03/06 05:36:08;;;;;;;8.27;2.70;;;2.00;99.90;;;;;;5046560;28;20500;-50
2021/03/06 05:38:36;;;;;;;8.30;2.50;;;2.00;99.90;;;;;;5042240;28;20522;-50
2021/03/06 05:41:03;;;;;;;8.53;2.60;;;2.00;99.90;;;;;;5035797;28;20570;-49
2021/03/06 05:43:31;;;;;;;3.70;2.30;;;2.00;99.90;;;;;;5018879;28;20564;-49
2021/03/06 05:45:58;;;;;;;8.47;2.70;;;2.10;99.90;;;;;;5024721;28;21031;-49
2021/03/06 05:48:28;;;;;;;9.87;2.67;;;2.00;99.90;;;;;;5012277;28;20481;-49
2021/03/06 05:50:56;;;;;;;8.13;2.37;;;2.00;99.90;;;;;;5009960;28;20487;-52
2021/03/06 05:53:25;;;;;;;6.63;2.90;;;2.00;99.90;;;;;;5021258;28;20847;-49
2021/03/06 05:55:58;;;;;;;8.17;3.00;;;2.00;99.90;;;;;;5028778;28;20980;-48
2021/03/06 05:58:32;;;;;;;6.40;2.67;;;2.10;99.90;;;;;;5029647;28;20481;-49
2021/03/06 06:01:01;;;;;;;9.10;3.10;;;2.10;99.90;;;;;;5015109;28;20509;-50
2021/03/06 06:03:31;;;;;;;8.60;3.00;;;2.20;99.90;;;;;;5016051;28;20552;-49
2021/03/06 06:06:00;;;;;;;8.13;2.80;;;2.10;99.90;;;;;;5035333;28;20535;-49
2021/03/06 06:08:28;;;;;;;5.67;2.90;;;2.10;99.90;;;;;;5038817;28;21007;-49
2021/03/06 06:10:58;;;;;;;7.27;3.03;;;2.30;99.90;;;;;;5038428;28;20858;-49
2021/03/06 06:13:25;;;;;;;8.50;2.73;;;2.30;99.90;;;;;;5037505;28;20547;-49
2021/03/06 06:15:53;;;;;;;8.37;3.17;;;2.20;99.90;;;;;;5038233;28;20508;-49
2021/03/06 06:18:21;;;;;;;7.10;3.23;;;2.30;99.90;;;;;;5044062;28;20609;-49
2021/03/06 06:20:49;;;;;;;7.90;2.90;;;2.20;99.90;;;;;;5037045;28;20484;-49
2021/03/06 06:23:18;;;;;;;8.97;2.73;;;2.40;99.90;;;;;;5039460;28;20476;-49
2021/03/06 06:25:47;;;;;;;8.77;2.80;;;2.30;99.90;;;;;;5038798;28;20471;-49
2021/03/06 06:28:23;;;;;;;10.17;2.57;;;2.30;99.90;;;;;;5038938;28;20999;-49
2021/03/06 06:31:10;;;;;;;9.60;2.83;;;2.30;99.90;;;;;;5046916;28;21281;-49
2021/03/06 06:33:38;;;;;;;9.23;3.33;;;2.40;99.90;;;;;;5054563;28;20494;-49
2021/03/06 06:36:07;;;;;;;6.37;2.93;;;2.40;99.90;;;;;;5055984;28;20607;-49
2021/03/06 06:38:44;;;;;;;6.77;2.80;;;2.30;99.90;;;;;;5044479;28;20532;-49
2021/03/06 06:41:12;;;;;;;8.37;2.80;;;2.30;99.90;;;;;;5048351;28;20485;-49
2021/03/06 06:43:39;;;;;;;7.70;2.93;;;2.20;99.90;;;;;;5061269;28;20475;-52
2021/03/06 06:46:08;;;;;;;6.83;3.47;;;2.30;99.90;;;;;;5045826;28;21061;-49
2021/03/06 06:48:56;;;;;;;8.30;3.13;;;2.30;99.90;;;;;;5047908;28;20569;-50
2021/03/06 06:51:25;;;;;;;6.13;2.90;;;2.30;99.90;;;;;;5046697;28;20483;-50
2021/03/06 06:54:09;;;;;;;9.63;3.20;;;2.40;99.90;;;;;;5040254;28;20487;-51
2021/03/06 06:56:36;;;;;;;11.03;3.37;;;2.50;99.90;;;;;;5035606;28;20572;-50
2021/03/06 06:59:05;;;;;;;7.87;2.90;;;2.60;99.90;;;;;;5039413;28;20534;-49
2021/03/06 07:01:35;;;;;;;10.30;3.53;;;2.70;99.90;;;;;;5033472;28;20507;-49
2021/03/06 07:04:06;;;;;;;7.67;3.67;;;2.70;99.90;;;;;;5026665;28;20487;-51
2021/03/06 07:06:35;;;;;;;9.73;3.00;;;2.70;99.90;;;;;;5041574;28;20489;-49
2021/03/06 07:09:11;;;;;;;9.37;3.60;;;2.80;99.90;;;;;;5042634;28;20484;-49
2021/03/06 07:11:40;;;;;;;10.47;3.53;;;2.80;99.90;;;;;;5035840;28;20573;-50
2021/03/06 07:14:09;;;;;;;8.20;3.00;;;2.90;99.90;;;;;;5031639;28;20876;-49
2021/03/06 07:16:56;;;;;;;7.53;2.90;;;2.90;99.90;;;;;;5044433;28;20482;-51
2021/03/06 07:19:27;;;;;;;6.23;2.83;;;2.90;99.90;;;;;;5046826;28;21038;-49
2021/03/06 07:21:55;;;;;;;11.90;3.37;;;3.00;99.90;;;;;;5040647;28;20486;-51
2021/03/06 07:24:22;;;;;;;8.37;2.97;;;2.90;99.90;;;;;;5040817;28;21042;-52
2021/03/06 07:26:52;;;;;;;11.67;3.37;;;2.90;99.90;;;;;;5050832;28;20554;-49
2021/03/06 07:29:24;;;;;;;6.27;3.17;;;3.00;99.90;;;;;;5040172;28;20483;-50
2021/03/06 07:31:53;;;;;;;7.97;3.30;;;3.00;99.90;;;;;;5035249;28;20485;-49
2021/03/06 07:34:25;;;;;;;9.77;2.87;;;3.00;99.90;;;;;;5034761;28;20489;-50
2021/03/06 07:36:59;;;;;;;10.47;3.10;;;3.00;99.90;;;;;;5035947;28;20478;-51
2021/03/06 07:39:27;;;;;;;10.77;3.27;;;3.10;99.90;;;;;;5036658;28;20974;-50
2021/03/06 07:41:58;;;;;;;7.23;3.17;;;3.20;99.90;;;;;;5033448;28;20473;-52
2021/03/06 07:44:28;;;;;;;8.97;3.30;;;3.10;99.90;;;;;;5034648;28;20572;-50
2021/03/06 07:46:58;;;;;;;7.20;3.23;;;3.10;99.90;;;;;;5043808;28;20540;-49
2021/03/06 07:49:32;;;;;;;8.37;3.37;;;3.20;99.90;;;;;;5035307;28;21186;-49
2021/03/06 07:52:01;;;;;;;9.20;3.27;;;3.20;99.90;;;;;;5029414;28;20578;-49
2021/03/06 07:54:33;;;;;;;8.07;3.47;;;3.30;99.90;;;;;;5046302;28;20484;-49
2021/03/06 07:57:00;;;;;;;6.83;2.90;;;3.40;99.90;;;;;;5019374;28;20613;-49
2021/03/06 07:59:53;;;;;;;9.30;3.57;;;3.40;99.90;;;;;;5019272;28;20474;-49
2021/03/06 08:02:37;;;;;;;7.70;3.00;;;3.40;99.90;;;;;;5022667;28;20533;-52
2021/03/06 08:05:08;;;;;;;6.97;3.70;;;3.60;99.90;;;;;;5026284;28;20505;-49
2021/03/06 08:07:45;;;;;;;7.57;2.80;;;3.70;99.90;;;;;;5019989;28;20854;-50
2021/03/06 08:10:13;;;;;;;10.23;2.77;;;3.70;99.90;;;;;;5021110;28;20591;-49
2021/03/06 08:12:41;;;;;;;8.27;3.20;;;3.80;99.90;;;;;;5024222;28;20918;-49
2021/03/06 08:15:34;;;;;;;8.93;3.20;;;3.90;99.90;;;;;;5031984;28;20585;-51
2021/03/06 08:18:02;;;;;;;8.13;3.10;;;3.90;99.90;;;;;;5033366;28;20482;-50
2021/03/06 08:20:32;;;;;;;12.30;3.47;;;3.90;99.90;;;;;;5015728;28;20832;-50
2021/03/06 08:23:22;;;;;;;6.60;3.17;;;4.00;99.90;;;;;;5024443;28;20490;-49
2021/03/06 08:26:30;;;;;;;8.23;2.93;;;4.10;99.90;;;;;;5035730;28;20884;-53
2021/03/06 08:29:34;;;;;;;9.23;3.10;;;4.10;99.90;;;;;;5016536;28;20492;-50
2021/03/06 08:32:05;;;;;;;11.10;3.27;;;4.20;99.90;;;;;;5016158;28;20585;-53
2021/03/06 08:34:35;;;;;;;8.87;3.30;;;4.20;99.90;;;;;;5016115;28;20499;-51
2021/03/06 08:37:32;;;;;;;6.33;3.10;;;4.20;99.90;;;;;;5017452;28;20495;-51
2021/03/06 08:40:08;;;;;;;6.03;3.00;;;4.20;99.90;;;;;;5032408;28;20509;-51
2021/03/06 08:42:43;;;;;;;11.43;2.90;;;4.30;99.90;;;;;;5014610;28;20517;-52
2021/03/06 08:45:15;;;;;;;9.40;3.20;;;4.30;99.90;;;;;;5016247;28;20498;-49
2021/03/06 08:47:46;;;;;;;10.70;3.20;;;4.20;99.90;;;;;;5023519;28;20885;-49
2021/03/06 08:50:19;;;;;;;8.67;3.43;;;4.30;99.90;;;;;;5017755;28;20582;-54
2021/03/06 08:52:59;;;;;;;8.30;3.10;;;4.20;99.90;;;;;;5018397;28;20881;-50
2021/03/06 08:55:31;;;;;;;11.63;3.30;;;4.20;99.90;;;;;;5019028;28;20480;-51
2021/03/06 08:58:04;;;;;;;10.40;3.67;;;4.30;99.90;;;;;;5022996;28;20900;-50
2021/03/06 09:00:35;;;;;;;8.67;3.30;;;4.40;99.90;;;;;;5016194;28;20487;-51
2021/03/06 09:03:16;;;;;;;8.90;2.57;;;4.50;99.90;;;;;;5016259;28;21207;-51
2021/03/06 09:05:47;;;;;;;7.83;2.80;;;4.50;99.90;;;;;;5017777;28;20479;-52
2021/03/06 09:08:19;;;;;;;7.80;3.03;;;4.50;99.90;;;;;;5017829;28;20486;-49
2021/03/06 09:10:47;;;;;;;8.43;2.43;;;4.50;99.90;;;;;;5025665;28;20874;-52
2021/03/06 09:13:19;;;;;;;6.13;2.10;;;4.50;99.90;;;;;;5017660;28;20506;-49
2021/03/06 09:15:50;;;;;;;3.90;1.77;;;4.40;99.90;;;;;;5015559;28;20487;-51
2021/03/06 09:18:20;;;;;;;4.63;1.50;;;4.40;99.90;;;;;;5015892;28;20502;-53
2021/03/06 09:20:53;;;;;;;3.53;1.30;;;4.50;99.90;;;;;;5015823;28;21146;-50
2021/03/06 09:23:33;;;;;;;4.07;1.50;;;4.60;99.90;;;;;;5017906;28;20569;-53
2021/03/06 09:26:07;;;;;;;4.03;1.20;;;4.70;99.90;;;;;;5018542;28;20472;-51
2021/03/06 09:28:36;;;;;;;3.47;1.20;;;4.70;99.90;;;;;;5021197;28;20837;-53
2021/03/06 09:31:11;;;;;;;5.33;1.53;;;4.80;99.90;;;;;;5015960;28;20494;-51
2021/03/06 09:33:41;;;;;;;6.30;1.70;;;4.80;99.90;;;;;;5017120;28;20489;-49
2021/03/06 09:36:11;;;;;;;5.00;1.40;;;4.80;99.90;;;;;;5013117;28;20526;-49
2021/03/06 09:38:45;;;;;;;6.70;1.80;;;4.90;99.90;;;;;;5015539;28;22030;-49
2021/03/06 09:41:15;;;;;;;3.87;1.80;;;5.00;99.90;;;;;;5013012;28;20497;-50
2021/03/06 09:43:48;;;;;;;4.03;1.60;;;5.10;99.90;;;;;;5017124;28;20233;-50
2021/03/06 09:46:18;;;;;;;5.13;1.80;;;5.20;99.90;;;;;;5042877;28;20355;-54
2021/03/06 09:48:54;;;;;;;7.37;1.70;;;5.30;99.90;;;;;;5020154;28;21125;-53
2021/03/06 09:51:25;;;;;;;7.20;1.90;;;5.40;99.90;;;;;;5019256;28;20493;-54
2021/03/06 09:53:57;;;;;;;6.73;1.77;;;5.40;99.90;;;;;;5021436;28;20259;-52
2021/03/06 09:56:25;;;;;;;4.80;1.87;;;5.50;99.90;;;;;;5017220;28;20331;-50
2021/03/06 09:59:02;;;;;;;4.47;1.70;;;5.40;99.90;;;;;;5019316;28;20235;-53
2021/03/06 10:01:30;;;;;;;4.97;1.90;;;5.50;99.90;;;;;;5018209;28;20271;-51
2021/03/06 10:04:00;;;;;;;3.77;1.67;;;5.70;99.90;;;;;;5018608;28;20251;-52
2021/03/06 10:06:32;;;;;;;4.40;1.40;;;6.00;99.90;;;;;;5018321;28;20323;-50
2021/03/06 10:09:04;;;;;;;4.47;1.70;;;6.40;99.90;;;;;;5018739;28;20271;-51
2021/03/06 10:11:36;;;;;;;3.90;1.40;;;6.70;99.90;;;;;;5017039;28;20752;-52
2021/03/06 10:14:06;;;;;;;4.23;1.20;;;7.00;99.90;;;;;;5018724;28;20291;-50
2021/03/06 10:16:48;;;;;;;2.20;1.03;;;7.20;99.90;;;;;;5018004;28;20333;-52
2021/03/06 10:19:17;;;;;;;2.47;1.00;;;7.40;99.90;;;;;;5021875;28;20841;-50
2021/03/06 10:21:58;;;;;;;1.93;0.93;;;7.80;99.90;;;;;;5034694;28;20255;-50
2021/03/06 10:24:27;;;;;;;3.33;1.07;;;7.70;99.90;;;;;;5032106;28;20322;-50
2021/03/06 10:26:56;;;;;;;3.93;1.30;;;7.50;99.90;;;;;;5047635;28;20317;-52
2021/03/06 10:29:26;;;;;;;2.63;1.07;;;7.70;99.90;;;;;;5017453;28;20760;-50
2021/03/06 10:31:58;;;;;;;6.23;1.10;;;7.60;99.90;;;;;;5023195;28;20628;-51
2021/03/06 10:34:36;;;;;;;5.93;1.60;;;7.60;99.90;;;;;;5022167;28;20228;-52
2021/03/06 10:37:11;;;;;;;2.27;1.00;;;7.40;99.90;;;;;;5040901;28;20774;-51
2021/03/06 10:40:03;;;;;;;1.87;1.10;;;7.20;99.90;;;;;;5039738;28;20236;-50
2021/03/06 10:42:46;;;;;;;4.27;1.00;;;6.60;99.90;;;;;;5025922;28;20319;-51
2021/03/06 10:45:32;;;;;;;4.10;1.30;;;6.10;99.90;;;;;;5031853;28;20239;-51
2021/03/06 10:48:03;;;;;;;1.93;0.90;;;5.90;99.90;;;;;;5044024;28;20255;-50
2021/03/06 10:50:38;;;;;;;3.83;1.10;;;5.80;99.90;;;;;;5021468;28;20859;-50
2021/03/06 10:53:16;;;;;;;3.27;1.07;;;5.60;99.90;;;;;;5013459;28;20283;-50
2021/03/06 10:55:45;;;;;;;3.40;1.03;;;5.60;99.90;;;;;;5021008;28;20246;-49
2021/03/06 10:58:14;;;;;;;5.17;1.10;;;5.70;99.90;;;;;;5034359;28;20244;-49
2021/03/06 11:00:44;;;;;;;4.53;1.20;;;5.80;99.90;;;;;;5028417;28;20687;-49
2021/03/06 11:03:13;;;;;;;4.33;1.03;;;5.90;99.90;;;;;;5031856;28;20331;-51
2021/03/06 11:05:42;;;;;;;5.53;1.30;;;5.90;99.90;;;;;;5030058;28;20758;-49
2021/03/06 11:08:16;;;;;;;4.27;1.30;;;5.90;99.90;;;;;;5023312;28;20342;-50
2021/03/06 11:10:48;;;;;;;4.77;1.40;;;6.20;99.90;;;;;;5027900;28;20338;-49
2021/03/06 11:13:17;;;;;;;4.77;1.53;;;6.60;99.90;;;;;;5044299;28;20239;-50
2021/03/06 11:15:50;;;;;;;4.83;1.30;;;6.90;99.90;;;;;;5021272;28;22841;-49
2021/03/06 11:18:19;;;;;;;8.00;2.20;;;6.70;99.90;;;;;;5007757;28;20240;-49
2021/03/06 11:20:49;;;;;;;7.77;1.73;;;6.60;99.90;;;;;;5021365;28;20365;-49
2021/03/06 11:23:18;;;;;;;5.20;1.40;;;6.50;99.90;;;;;;5025113;28;20233;-50
2021/03/06 11:25:45;;;;;;;7.57;1.73;;;6.70;99.90;;;;;;5025660;28;20326;-49
2021/03/06 11:28:14;;;;;;;6.60;1.70;;;7.00;99.90;;;;;;5021299;28;20237;-50
2021/03/06 11:30:44;;;;;;;4.33;1.30;;;6.90;99.90;;;;;;5031193;28;20235;-51
2021/03/06 11:33:14;;;;;;;4.50;1.50;;;6.90;99.90;;;;;;5034556;28;20320;-49
2021/03/06 11:35:42;;;;;;;2.60;1.40;;;6.80;99.90;;;;;;5025646;28;20239;-49
2021/03/06 11:38:12;;;;;;;3.70;1.23;;;6.80;99.90;;;;;;5026718;28;20643;-49
2021/03/06 11:40:42;;;;;;;2.13;0.93;;;6.70;99.90;;;;;;5022649;28;20259;-51
2021/03/06 11:43:10;;;;;;;4.63;1.17;;;6.70;99.90;;;;;;5031783;28;20275;-49
2021/03/06 11:45:38;;;;;;;2.97;1.00;;;6.70;99.90;;;;;;5036852;28;20242;-50
2021/03/06 11:48:08;;;;;;;4.70;0.97;;;6.80;99.90;;;;;;5034993;28;20237;-49
2021/03/06 11:50:40;;;;;;;4.40;1.00;;;6.80;99.90;;;;;;5028596;28;20240;-49
2021/03/06 11:53:08;;;;;;;3.97;1.20;;;6.70;99.90;;;;;;5033735;28;20256;-49
2021/03/06 11:55:36;;;;;;;3.20;1.10;;;6.80;99.90;;;;;;5036071;28;20316;-50
2021/03/06 11:58:04;;;;;;;2.27;1.10;;;6.80;99.90;;;;;;5041521;28;20235;-50
2021/03/06 12:00:33;;;;;;;3.90;1.00;;;6.70;99.90;;;;;;5051725;28;20325;-49
2021/03/06 12:03:01;;;;;;;4.33;1.10;;;6.60;99.90;;;;;;5056296;28;20236;-49
2021/03/06 12:05:29;;;;;;;3.27;1.07;;;6.50;99.90;;;;;;5035229;28;20670;-49
2021/03/06 12:07:57;;;;;;;1.90;0.90;;;6.40;99.90;;;;;;5039081;28;20247;-53
2021/03/06 12:10:28;;;;;;;5.30;1.20;;;6.50;99.90;;;;;;5042959;28;20247;-52
2021/03/06 12:12:56;;;;;;;3.83;0.90;;;6.60;99.90;;;;;;5035275;28;20247;-50
2021/03/06 12:15:25;;;;;;;1.67;0.83;;;6.60;99.90;;;;;;5029826;28;20237;-52
2021/03/06 12:17:55;;;;;;;3.50;0.87;;;6.70;99.90;;;;;;5025498;28;20236;-50
2021/03/06 12:20:23;;;;;;;5.23;1.10;;;6.80;99.90;;;;;;5032673;28;20247;-49
2021/03/06 12:22:52;;;;;;;4.80;0.97;;;6.80;99.90;;;;;;5038782;28;20309;-50
2021/03/06 12:25:21;;;;;;;2.07;0.80;;;7.00;99.90;;;;;;5034104;28;20227;-51
2021/03/06 12:27:48;;;;;;;2.63;0.90;;;7.20;99.90;;;;;;5017547;28;20327;-50
2021/03/06 12:30:18;;;;;;;1.43;0.73;;;7.40;99.90;;;;;;5017836;28;20775;-49
2021/03/06 12:32:47;;;;;;;3.00;0.97;;;7.50;99.90;;;;;;5055631;28;20323;-49
2021/03/06 12:35:16;;;;;;;3.07;0.90;;;7.50;99.90;;;;;;5055321;28;20255;-51
2021/03/06 12:37:45;;;;;;;2.80;1.00;;;7.30;99.90;;;;;;5038155;28;20263;-49
2021/03/06 12:40:15;;;;;;;3.17;1.00;;;7.20;99.90;;;;;;5019672;28;20247;-49
2021/03/06 12:42:43;;;;;;;1.23;0.80;;;7.10;99.90;;;;;;5020895;28;20299;-51
2021/03/06 12:45:13;;;;;;;2.07;0.90;;;7.10;99.90;;;;;;5021300;28;20716;-49
2021/03/06 12:47:41;;;;;;;4.33;1.40;;;7.10;99.90;;;;;;5025294;28;20528;-52
2021/03/06 12:50:11;;;;;;;2.50;0.90;;;7.20;99.90;;;;;;5021836;28;20720;-52
2021/03/06 12:52:38;;;;;;;3.77;1.07;;;6.90;99.90;;;;;;5025552;28;20788;-53
2021/03/06 12:55:07;;;;;;;4.83;1.20;;;6.80;99.90;;;;;;5025887;28;20318;-56
2021/03/06 12:57:35;;;;;;;3.72;1.25;;;6.70;99.90;;;;;;5024706;28;21192;-52
2021/03/06 13:00:06;;;;;;;2.23;0.90;;;6.90;99.90;;;;;;5025519;28;20297;-51
2021/03/06 13:02:46;;;;;;;2.57;0.90;;;6.90;99.90;;;;;;5050927;28;20263;-52
2021/03/06 13:05:14;;;;;;;3.07;0.90;;;6.90;99.90;;;;;;5063273;28;20246;-49
2021/03/06 13:07:41;;;;;;;4.77;1.10;;;6.90;99.90;;;;;;5061710;28;20288;-52
2021/03/06 13:10:09;;;;;;;1.90;0.83;;;6.80;99.90;;;;;;5053926;28;20267;-53
2021/03/06 13:12:36;;;;;;;2.33;0.97;;;6.80;99.90;;;;;;5026754;28;20247;-53
2021/03/06 13:15:07;;;;;;;4.70;1.37;;;6.80;99.90;;;;;;5025414;28;20861;-52